sensor_id;sensor_type;location;lat;lon;timestamp;pressure;altitude;pressure_sealevel;temperature;humidity
10127;BME280;13080;42.608;23.362;2023-02-28T00:00:54;152307.41;;;4.76;100.00
10127;BME280;13080;42.608;23.362;2023-02-28T00:03:20;152311.28;;;4.78;100.00
10127;BME280;13080;42.608;23.362;2023-02-28T00:05:47;152313.84;;;4.79;100.00
10127;BME280;13080;42.608;23.362;2023-02-28T00:08:14;152338.47;;;4.89;100.00
10127;BME280;13080;42.608;23.362;2023-02-28T00:10:41;152347.47;;;4.92;100.00
10127;BME280;13080;42.608;23.362;2023-02-28T00:13:07;152331.94;;;4.86;100.00
10127;BME280;13080;42.608;23.362;2023-02-28T00:15:36;152326.78;;;4.84;100.00
10127;BME280;13080;42.608;23.362;2023-02-28T00:18:02;152324.22;;;4.83;100.00
10127;BME280;13080;42.608;23.362;2023-02-28T00:20:29;152311.28;;;4.78;100.00
10127;BME280;13080;42.608;23.362;2023-02-28T00:22:56;152333.28;;;4.87;100.00
10127;BME280;13080;42.608;23.362;2023-02-28T00:25:24;152348.75;;;4.93;100.00
10127;BME280;13080;42.608;23.362;2023-02-28T00:27:51;152333.28;;;4.87;100.00
10127;BME280;13080;42.608;23.362;2023-02-28T00:30:19;152303.50;;;4.75;100.00
10127;BME280;13080;42.608;23.362;2023-02-28T00:32:48;152286.69;;;4.68;100.00
10127;BME280;13080;42.608;23.362;2023-02-28T00:35:15;152286.69;;;4.68;100.00
10127;BME280;13080;42.608;23.362;2023-02-28T00:37:42;152299.66;;;4.73;100.00
10127;BME280;13080;42.608;23.362;2023-02-28T00:40:10;152309.97;;;4.77;100.00
10127;BME280;13080;42.608;23.362;2023-02-28T00:42:37;152307.41;;;4.76;100.00
10127;BME280;13080;42.608;23.362;2023-02-28T00:45:05;152294.50;;;4.71;100.00
10127;BME280;13080;42.608;23.362;2023-02-28T00:47:32;152295.78;;;4.72;100.00
10127;BME280;13080;42.608;23.362;2023-02-28T00:50:01;152309.97;;;4.77;100.00
10127;BME280;13080;42.608;23.362;2023-02-28T00:52:27;152294.50;;;4.71;100.00
10127;BME280;13080;42.608;23.362;2023-02-28T00:54:54;152276.41;;;4.64;100.00
10127;BME280;13080;42.608;23.362;2023-02-28T00:57:21;152277.69;;;4.65;100.00
10127;BME280;13080;42.608;23.362;2023-02-28T00:59:48;152280.25;;;4.66;100.00
10127;BME280;13080;42.608;23.362;2023-02-28T01:02:15;152267.31;;;4.61;100.00
10127;BME280;13080;42.608;23.362;2023-02-28T01:04:43;152251.81;;;4.54;100.00
10127;BME280;13080;42.608;23.362;2023-02-28T01:07:11;152250.53;;;4.54;100.00
10127;BME280;13080;42.608;23.362;2023-02-28T01:09:39;152245.34;;;4.52;100.00
10127;BME280;13080;42.608;23.362;2023-02-28T01:12:07;152241.44;;;4.50;100.00
10127;BME280;13080;42.608;23.362;2023-02-28T01:14:34;152233.72;;;4.47;100.00
10127;BME280;13080;42.608;23.362;2023-02-28T01:17:01;152214.34;;;4.40;100.00
10127;BME280;13080;42.608;23.362;2023-02-28T01:19:28;152201.38;;;4.34;100.00
10127;BME280;13080;42.608;23.362;2023-02-28T01:21:55;152191.03;;;4.30;100.00
10127;BME280;13080;42.608;23.362;2023-02-28T01:24:23;152191.03;;;4.30;100.00
10127;BME280;13080;42.608;23.362;2023-02-28T01:26:50;152183.31;;;4.27;100.00
10127;BME280;13080;42.608;23.362;2023-02-28T01:29:16;152167.78;;;4.21;100.00
10127;BME280;13080;42.608;23.362;2023-02-28T01:31:43;152157.47;;;4.17;100.00
10127;BME280;13080;42.608;23.362;2023-02-28T01:34:10;152161.31;;;4.19;100.00
10127;BME280;13080;42.608;23.362;2023-02-28T01:36:36;152145.81;;;4.12;100.00
10127;BME280;13080;42.608;23.362;2023-02-28T01:39:03;152141.97;;;4.11;100.00
10127;BME280;13080;42.608;23.362;2023-02-28T01:41:33;152120.00;;;4.02;100.00
10127;BME280;13080;42.608;23.362;2023-02-28T01:44:03;152105.75;;;3.96;100.00
10127;BME280;13080;42.608;23.362;2023-02-28T01:46:31;152094.13;;;3.92;100.00
10127;BME280;13080;42.608;23.362;2023-02-28T01:49:03;152096.75;;;3.93;100.00
10127;BME280;13080;42.608;23.362;2023-02-28T01:51:34;152105.75;;;3.96;100.00
10127;BME280;13080;42.608;23.362;2023-02-28T01:54:04;152085.13;;;3.88;100.00
10127;BME280;13080;42.608;23.362;2023-02-28T01:56:36;152069.59;;;3.82;100.00
10127;BME280;13080;42.608;23.362;2023-02-28T01:59:03;152057.97;;;3.78;100.00
10127;BME280;13080;42.608;23.362;2023-02-28T02:01:30;152036.00;;;3.69;100.00
10127;BME280;13080;42.608;23.362;2023-02-28T02:04:01;152045.06;;;3.72;100.00
10127;BME280;13080;42.608;23.362;2023-02-28T02:06:31;152060.53;;;3.79;100.00
10127;BME280;13080;42.608;23.362;2023-02-28T02:08:59;152069.59;;;3.82;100.00
10127;BME280;13080;42.608;23.362;2023-02-28T02:11:27;152046.34;;;3.73;100.00
10127;BME280;13080;42.608;23.362;2023-02-28T02:14:10;152045.06;;;3.72;100.00
10127;BME280;13080;42.608;23.362;2023-02-28T02:16:47;152030.84;;;3.67;100.00
10127;BME280;13080;42.608;23.362;2023-02-28T02:19:54;152003.69;;;3.56;100.00
10127;BME280;13080;42.608;23.362;2023-02-28T02:22:49;151999.88;;;3.54;100.00
10127;BME280;13080;42.608;23.362;2023-02-28T02:25:28;152003.69;;;3.56;100.00
10127;BME280;13080;42.608;23.362;2023-02-28T02:31:13;151976.63;;;3.45;100.00
10127;BME280;13080;42.608;23.362;2023-02-28T02:36:51;151983.06;;;3.48;100.00
10127;BME280;13080;42.608;23.362;2023-02-28T02:39:26;151966.28;;;3.41;100.00
10127;BME280;13080;42.608;23.362;2023-02-28T02:42:00;151953.34;;;3.36;100.00
10127;BME280;13080;42.608;23.362;2023-02-28T02:44:31;151940.44;;;3.31;100.00
10127;BME280;13080;42.608;23.362;2023-02-28T02:47:05;151936.53;;;3.29;100.00
10127;BME280;13080;42.608;23.362;2023-02-28T02:49:36;151922.38;;;3.24;100.00
10127;BME280;13080;42.608;23.362;2023-02-28T02:52:07;151921.09;;;3.23;100.00
10127;BME280;13080;42.608;23.362;2023-02-28T02:54:37;151919.75;;;3.23;100.00
10127;BME280;13080;42.608;23.362;2023-02-28T02:57:07;151901.69;;;3.16;100.00
10127;BME280;13080;42.608;23.362;2023-02-28T02:59:37;151888.78;;;3.10;100.00
10127;BME280;13080;42.608;23.362;2023-02-28T03:02:08;151882.34;;;3.08;100.00
10127;BME280;13080;42.608;23.362;2023-02-28T03:04:40;151890.06;;;3.11;100.00
10127;BME280;13080;42.608;23.362;2023-02-28T03:07:10;151886.22;;;3.09;100.00
10127;BME280;13080;42.608;23.362;2023-02-28T03:09:37;151884.91;;;3.09;100.00
10127;BME280;13080;42.608;23.362;2023-02-28T03:12:08;151896.53;;;3.13;100.00
10127;BME280;13080;42.608;23.362;2023-02-28T03:14:45;151909.47;;;3.19;100.00
10127;BME280;13080;42.608;23.362;2023-02-28T03:17:28;151904.28;;;3.17;100.00
10127;BME280;13080;42.608;23.362;2023-02-28T03:20:04;151917.19;;;3.22;100.00
10127;BME280;13080;42.608;23.362;2023-02-28T03:22:49;151926.25;;;3.25;100.00
10127;BME280;13080;42.608;23.362;2023-02-28T03:25:21;151909.47;;;3.19;100.00
10127;BME280;13080;42.608;23.362;2023-02-28T03:28:00;151930.09;;;3.27;100.00
10127;BME280;13080;42.608;23.362;2023-02-28T03:30:35;151944.31;;;3.32;100.00
10127;BME280;13080;42.608;23.362;2023-02-28T03:33:08;151937.88;;;3.30;100.00
10127;BME280;13080;42.608;23.362;2023-02-28T03:35:41;151943.03;;;3.32;100.00
10127;BME280;13080;42.608;23.362;2023-02-28T03:38:16;151954.66;;;3.37;100.00
10127;BME280;13080;42.608;23.362;2023-02-28T03:40:48;151959.81;;;3.39;100.00
10127;BME280;13080;42.608;23.362;2023-02-28T03:43:19;151958.50;;;3.38;100.00
10127;BME280;13080;42.608;23.362;2023-02-28T03:45:50;151950.78;;;3.35;100.00
10127;BME280;13080;42.608;23.362;2023-02-28T03:48:22;151936.53;;;3.29;100.00
10127;BME280;13080;42.608;23.362;2023-02-28T03:50:54;151936.53;;;3.29;100.00
10127;BME280;13080;42.608;23.362;2023-02-28T03:53:26;151918.47;;;3.22;100.00
10127;BME280;13080;42.608;23.362;2023-02-28T03:55:57;151913.31;;;3.20;100.00
10127;BME280;13080;42.608;23.362;2023-02-28T03:58:29;151890.06;;;3.11;100.00
10127;BME280;13080;42.608;23.362;2023-02-28T04:01:00;151886.22;;;3.09;100.00
10127;BME280;13080;42.608;23.362;2023-02-28T04:03:35;151902.97;;;3.16;100.00
10127;BME280;13080;42.608;23.362;2023-02-28T04:06:02;151870.72;;;3.03;100.00
10127;BME280;13080;42.608;23.362;2023-02-28T04:08:31;151873.28;;;3.04;100.00
10127;BME280;13080;42.608;23.362;2023-02-28T04:11:02;151874.56;;;3.05;100.00
10127;BME280;13080;42.608;23.362;2023-02-28T04:13:31;151873.28;;;3.04;100.00
10127;BME280;13080;42.608;23.362;2023-02-28T04:15:57;151859.09;;;2.99;100.00
10127;BME280;13080;42.608;23.362;2023-02-28T04:18:24;151860.38;;;2.99;100.00
10127;BME280;13080;42.608;23.362;2023-02-28T04:20:51;151861.66;;;3.00;100.00
10127;BME280;13080;42.608;23.362;2023-02-28T04:23:18;151851.34;;;2.96;100.00
10127;BME280;13080;42.608;23.362;2023-02-28T04:25:46;151850.06;;;2.95;100.00
10127;BME280;13080;42.608;23.362;2023-02-28T04:28:13;151819.09;;;2.83;100.00
10127;BME280;13080;42.608;23.362;2023-02-28T04:30:39;151804.88;;;2.77;100.00
10127;BME280;13080;42.608;23.362;2023-02-28T04:33:06;151795.88;;;2.74;100.00
10127;BME280;13080;42.608;23.362;2023-02-28T04:35:33;151813.94;;;2.81;100.00
10127;BME280;13080;42.608;23.362;2023-02-28T04:37:59;151797.16;;;2.74;100.00
10127;BME280;13080;42.608;23.362;2023-02-28T04:40:26;151786.81;;;2.70;100.00
10127;BME280;13080;42.608;23.362;2023-02-28T04:42:54;151782.91;;;2.68;100.00
10127;BME280;13080;42.608;23.362;2023-02-28T04:45:21;151777.75;;;2.66;100.00
10127;BME280;13080;42.608;23.362;2023-02-28T04:47:48;151782.91;;;2.68;100.00
10127;BME280;13080;42.608;23.362;2023-02-28T04:50:15;151775.19;;;2.65;100.00
10127;BME280;13080;42.608;23.362;2023-02-28T04:52:41;151784.19;;;2.69;100.00
10127;BME280;13080;42.608;23.362;2023-02-28T04:55:09;151794.53;;;2.73;100.00
10127;BME280;13080;42.608;23.362;2023-02-28T04:57:35;151799.69;;;2.75;100.00
10127;BME280;13080;42.608;23.362;2023-02-28T05:00:05;151813.94;;;2.81;100.00
10127;BME280;13080;42.608;23.362;2023-02-28T05:02:37;151806.16;;;2.78;100.00
10127;BME280;13080;42.608;23.362;2023-02-28T05:05:04;151828.09;;;2.86;100.00
10127;BME280;13080;42.608;23.362;2023-02-28T05:07:31;151837.16;;;2.90;100.00
10127;BME280;13080;42.608;23.362;2023-02-28T05:09:57;151847.50;;;2.94;100.00
10127;BME280;13080;42.608;23.362;2023-02-28T05:12:24;151861.66;;;3.00;100.00
10127;BME280;13080;42.608;23.362;2023-02-28T05:14:51;151866.84;;;3.02;100.00
10127;BME280;13080;42.608;23.362;2023-02-28T05:17:19;151868.13;;;3.02;100.00
10127;BME280;13080;42.608;23.362;2023-02-28T05:19:45;151890.06;;;3.11;100.00
10127;BME280;13080;42.608;23.362;2023-02-28T05:22:13;151886.22;;;3.09;100.00
10127;BME280;13080;42.608;23.362;2023-02-28T05:24:41;151891.34;;;3.11;100.00
10127;BME280;13080;42.608;23.362;2023-02-28T05:27:08;151908.13;;;3.18;100.00
10127;BME280;13080;42.608;23.362;2023-02-28T05:29:35;151921.09;;;3.23;100.00
10127;BME280;13080;42.608;23.362;2023-02-28T05:32:08;151924.91;;;3.25;100.00
10127;BME280;13080;42.608;23.362;2023-02-28T05:34:36;151930.09;;;3.27;100.00
10127;BME280;13080;42.608;23.362;2023-02-28T05:37:03;151941.72;;;3.31;100.00
10127;BME280;13080;42.608;23.362;2023-02-28T05:39:30;151952.06;;;3.36;100.00
10127;BME280;13080;42.608;23.362;2023-02-28T05:41:57;151974.00;;;3.44;100.00
10127;BME280;13080;42.608;23.362;2023-02-28T05:44:23;151971.44;;;3.43;100.00
10127;BME280;13080;42.608;23.362;2023-02-28T05:46:50;151974.00;;;3.44;100.00
10127;BME280;13080;42.608;23.362;2023-02-28T05:49:17;151998.53;;;3.54;100.00
10127;BME280;13080;42.608;23.362;2023-02-28T05:51:45;152011.47;;;3.59;100.00
10127;BME280;13080;42.608;23.362;2023-02-28T05:54:12;152029.56;;;3.66;100.00
10127;BME280;13080;42.608;23.362;2023-02-28T05:56:39;152048.91;;;3.74;100.00
10127;BME280;13080;42.608;23.362;2023-02-28T05:59:09;152072.16;;;3.83;100.00
10127;BME280;13080;42.608;23.362;2023-02-28T06:01:37;152081.22;;;3.87;100.00
10127;BME280;13080;42.608;23.362;2023-02-28T06:04:09;152103.19;;;3.95;100.00
10127;BME280;13080;42.608;23.362;2023-02-28T06:06:36;152116.09;;;4.01;100.00
10127;BME280;13080;42.608;23.362;2023-02-28T06:09:06;152123.88;;;4.04;100.00
10127;BME280;13080;42.608;23.362;2023-02-28T06:11:33;152153.59;;;4.15;100.00
10127;BME280;13080;42.608;23.362;2023-02-28T06:14:01;152165.22;;;4.20;100.00
10127;BME280;13080;42.608;23.362;2023-02-28T06:16:28;152196.22;;;4.32;100.00
10127;BME280;13080;42.608;23.362;2023-02-28T06:18:57;152210.44;;;4.38;100.00
10127;BME280;13080;42.608;23.362;2023-02-28T06:21:24;152235.00;;;4.48;100.00
10127;BME280;13080;42.608;23.362;2023-02-28T06:23:52;152241.44;;;4.50;100.00
10127;BME280;13080;42.608;23.362;2023-02-28T06:26:20;152263.44;;;4.59;100.00
10127;BME280;13080;42.608;23.362;2023-02-28T06:28:47;152282.84;;;4.67;100.00
10127;BME280;13080;42.608;23.362;2023-02-28T06:31:16;152295.78;;;4.72;100.00
10127;BME280;13080;42.608;23.362;2023-02-28T06:33:44;152317.75;;;4.81;100.00
10127;BME280;13080;42.608;23.362;2023-02-28T06:36:12;152328.09;;;4.85;100.00
10127;BME280;13080;42.608;23.362;2023-02-28T06:38:40;152355.22;;;4.95;100.00
10127;BME280;13080;42.608;23.362;2023-02-28T06:41:07;152390.16;;;5.09;100.00
10127;BME280;13080;42.608;23.362;2023-02-28T06:43:38;152418.63;;;5.20;100.00
10127;BME280;13080;42.608;23.362;2023-02-28T06:46:06;152445.75;;;5.31;100.00
10127;BME280;13080;42.608;23.362;2023-02-28T06:48:34;152466.47;;;5.39;100.00
10127;BME280;13080;42.608;23.362;2023-02-28T06:51:02;152483.28;;;5.46;100.00
10127;BME280;13080;42.608;23.362;2023-02-28T06:53:29;152504.00;;;5.54;100.00
10127;BME280;13080;42.608;23.362;2023-02-28T06:55:56;152524.66;;;5.62;100.00
10127;BME280;13080;42.608;23.362;2023-02-28T06:58:23;152537.63;;;5.68;100.00
10127;BME280;13080;42.608;23.362;2023-02-28T07:00:52;152572.56;;;5.81;100.00
10127;BME280;13080;42.608;23.362;2023-02-28T07:03:19;152568.66;;;5.80;100.00
10127;BME280;13080;42.608;23.362;2023-02-28T07:05:45;152573.84;;;5.82;100.00
10127;BME280;13080;42.608;23.362;2023-02-28T07:08:12;152623.09;;;6.01;100.00
10127;BME280;13080;42.608;23.362;2023-02-28T07:10:39;152620.47;;;6.00;100.00
10127;BME280;13080;42.608;23.362;2023-02-28T07:13:08;152648.94;;;6.12;100.00
10127;BME280;13080;42.608;23.362;2023-02-28T07:15:35;152677.41;;;6.23;100.00
10127;BME280;13080;42.608;23.362;2023-02-28T07:18:03;152687.78;;;6.27;100.00
10127;BME280;13080;42.608;23.362;2023-02-28T07:20:30;152718.88;;;6.39;100.00
10127;BME280;13080;42.608;23.362;2023-02-28T07:22:57;152724.06;;;6.41;100.00
10127;BME280;13080;42.608;23.362;2023-02-28T07:25:25;152744.72;;;6.50;100.00
10127;BME280;13080;42.608;23.362;2023-02-28T07:27:53;152778.41;;;6.63;100.00
10127;BME280;13080;42.608;23.362;2023-02-28T07:30:20;152790.06;;;6.68;100.00
10127;BME280;13080;42.608;23.362;2023-02-28T07:32:47;152806.88;;;6.74;100.00
10127;BME280;13080;42.608;23.362;2023-02-28T07:35:15;152803.03;;;6.73;100.00
10127;BME280;13080;42.608;23.362;2023-02-28T07:37:42;152828.91;;;6.83;100.00
10127;BME280;13080;42.608;23.362;2023-02-28T07:40:10;152849.66;;;6.91;100.00
10127;BME280;13080;42.608;23.362;2023-02-28T07:42:38;152871.66;;;7.00;100.00
10127;BME280;13080;42.608;23.362;2023-02-28T07:45:06;152888.50;;;7.06;100.00
10127;BME280;13080;42.608;23.362;2023-02-28T07:47:33;152958.44;;;7.34;100.00
10127;BME280;13080;42.608;23.362;2023-02-28T07:50:00;152985.66;;;7.45;100.00
10127;BME280;13080;42.608;23.362;2023-02-28T07:52:28;153016.72;;;7.57;100.00
10127;BME280;13080;42.608;23.362;2023-02-28T07:54:55;153036.19;;;7.65;100.00
10127;BME280;13080;42.608;23.362;2023-02-28T07:57:21;153040.06;;;7.66;100.00
10127;BME280;13080;42.608;23.362;2023-02-28T07:59:48;153097.06;;;7.89;100.00
10127;BME280;13080;42.608;23.362;2023-02-28T08:02:17;153126.91;;;8.01;100.00
10127;BME280;13080;42.608;23.362;2023-02-28T08:04:44;153165.81;;;8.16;100.00
10127;BME280;13080;42.608;23.362;2023-02-28T08:07:12;153234.56;;;8.43;100.00
10127;BME280;13080;42.608;23.362;2023-02-28T08:09:40;153274.78;;;8.59;100.00
10127;BME280;13080;42.608;23.362;2023-02-28T08:12:07;153308.50;;;8.72;100.00
10127;BME280;13080;42.608;23.362;2023-02-28T08:14:34;153309.78;;;8.73;100.00
10127;BME280;13080;42.608;23.362;2023-02-28T08:17:01;153318.84;;;8.77;100.00
10127;BME280;13080;42.608;23.362;2023-02-28T08:19:28;153308.50;;;8.72;100.00
10127;BME280;13080;42.608;23.362;2023-02-28T08:21:55;153320.16;;;8.77;100.00
10127;BME280;13080;42.608;23.362;2023-02-28T08:24:22;153278.63;;;8.61;100.00
10127;BME280;13080;42.608;23.362;2023-02-28T08:26:50;153317.53;;;8.76;100.00
10127;BME280;13080;42.608;23.362;2023-02-28T08:29:17;153340.88;;;8.85;100.00
10127;BME280;13080;42.608;23.362;2023-02-28T08:31:44;153378.53;;;9.00;100.00
10127;BME280;13080;42.608;23.362;2023-02-28T08:34:12;153412.25;;;9.13;100.00
10127;BME280;13080;42.608;23.362;2023-02-28T08:36:40;153425.22;;;9.19;100.00
10127;BME280;13080;42.608;23.362;2023-02-28T08:39:08;153456.38;;;9.31;98.95
10127;BME280;13080;42.608;23.362;2023-02-28T08:41:35;153488.78;;;9.44;97.91
10127;BME280;13080;42.608;23.362;2023-02-28T08:44:04;153499.16;;;9.48;96.48
10127;BME280;13080;42.608;23.362;2023-02-28T08:46:30;153503.09;;;9.49;96.46
10127;BME280;13080;42.608;23.362;2023-02-28T08:48:57;153512.19;;;9.53;94.02
10127;BME280;13080;42.608;23.362;2023-02-28T08:51:27;153501.78;;;9.49;95.55
10127;BME280;13080;42.608;23.362;2023-02-28T08:53:55;153527.72;;;9.59;94.96
10127;BME280;13080;42.608;23.362;2023-02-28T08:56:22;153493.97;;;9.46;93.94
10127;BME280;13080;42.608;23.362;2023-02-28T08:58:50;153519.94;;;9.56;95.35
10127;BME280;13080;42.608;23.362;2023-02-28T09:01:19;153560.19;;;9.72;92.73
10127;BME280;13080;42.608;23.362;2023-02-28T09:03:47;153549.78;;;9.68;93.46
10127;BME280;13080;42.608;23.362;2023-02-28T09:06:16;153587.44;;;9.83;92.54
10127;BME280;13080;42.608;23.362;2023-02-28T09:08:43;153580.97;;;9.80;90.36
10127;BME280;13080;42.608;23.362;2023-02-28T09:11:11;153560.19;;;9.72;90.00
10127;BME280;13080;42.608;23.362;2023-02-28T09:13:38;153523.88;;;9.57;90.55
10127;BME280;13080;42.608;23.362;2023-02-28T09:16:06;153525.16;;;9.58;90.20
10127;BME280;13080;42.608;23.362;2023-02-28T09:18:35;153518.66;;;9.55;91.92
10127;BME280;13080;42.608;23.362;2023-02-28T09:21:03;153509.56;;;9.52;91.93
10127;BME280;13080;42.608;23.362;2023-02-28T09:23:30;153507.00;;;9.51;91.33
10127;BME280;13080;42.608;23.362;2023-02-28T09:25:57;153558.91;;;9.71;90.48
10127;BME280;13080;42.608;23.362;2023-02-28T09:28:24;153580.97;;;9.80;89.34
10127;BME280;13080;42.608;23.362;2023-02-28T09:30:52;153560.19;;;9.72;89.37
10127;BME280;13080;42.608;23.362;2023-02-28T09:33:20;153547.22;;;9.67;89.03
10127;BME280;13080;42.608;23.362;2023-02-28T09:35:49;153577.06;;;9.78;89.77
10127;BME280;13080;42.608;23.362;2023-02-28T09:38:16;153579.63;;;9.79;87.63
10127;BME280;13080;42.608;23.362;2023-02-28T09:40:48;153597.84;;;9.87;88.06
10127;BME280;13080;42.608;23.362;2023-02-28T09:43:18;153573.16;;;9.77;88.14
10127;BME280;13080;42.608;23.362;2023-02-28T09:45:50;153543.31;;;9.65;89.08
10127;BME280;13080;42.608;23.362;2023-02-28T09:48:26;153553.69;;;9.69;88.57
10127;BME280;13080;42.608;23.362;2023-02-28T09:51:00;153545.88;;;9.66;89.09
10127;BME280;13080;42.608;23.362;2023-02-28T09:53:31;153580.97;;;9.80;86.85
10127;BME280;13080;42.608;23.362;2023-02-28T09:56:01;153560.19;;;9.72;88.81
10127;BME280;13080;42.608;23.362;2023-02-28T09:58:37;153596.50;;;9.86;87.85
10127;BME280;13080;42.608;23.362;2023-02-28T10:01:23;153631.59;;;10.00;87.80
10127;BME280;13080;42.608;23.362;2023-02-28T10:03:55;153616.00;;;9.94;87.25
10127;BME280;13080;42.608;23.362;2023-02-28T10:06:28;153630.25;;;9.99;85.96
10127;BME280;13080;42.608;23.362;2023-02-28T10:09:00;153647.13;;;10.06;87.04
10127;BME280;13080;42.608;23.362;2023-02-28T10:11:28;153669.22;;;10.15;85.83
10127;BME280;13080;42.608;23.362;2023-02-28T10:14:00;153653.63;;;10.09;85.71
10127;BME280;13080;42.608;23.362;2023-02-28T10:16:34;153690.00;;;10.23;86.16
10127;BME280;13080;42.608;23.362;2023-02-28T10:19:04;153708.22;;;10.30;85.35
10127;BME280;13080;42.608;23.362;2023-02-28T10:21:35;153682.19;;;10.20;84.94
10127;BME280;13080;42.608;23.362;2023-02-28T10:24:10;153714.72;;;10.33;84.55
10127;BME280;13080;42.608;23.362;2023-02-28T10:26:40;153713.44;;;10.32;83.60
10127;BME280;13080;42.608;23.362;2023-02-28T10:29:10;153743.28;;;10.44;83.89
10127;BME280;13080;42.608;23.362;2023-02-28T10:31:38;153712.13;;;10.32;86.27
10127;BME280;13080;42.608;23.362;2023-02-28T10:34:05;153742.00;;;10.44;83.90
10127;BME280;13080;42.608;23.362;2023-02-28T10:36:33;153756.31;;;10.49;83.34
10127;BME280;13080;42.608;23.362;2023-02-28T10:39:00;153770.56;;;10.55;82.91
10127;BME280;13080;42.608;23.362;2023-02-28T10:41:29;153797.84;;;10.66;84.94
10127;BME280;13080;42.608;23.362;2023-02-28T10:44:14;153773.13;;;10.56;82.92
10127;BME280;13080;42.608;23.362;2023-02-28T10:46:44;153777.03;;;10.57;82.37
10127;BME280;13080;42.608;23.362;2023-02-28T10:49:17;153761.44;;;10.51;82.90
10127;BME280;13080;42.608;23.362;2023-02-28T10:51:49;153753.69;;;10.48;82.55
10127;BME280;13080;42.608;23.362;2023-02-28T10:54:19;153742.00;;;10.44;83.01
10127;BME280;13080;42.608;23.362;2023-02-28T10:57:06;153723.81;;;10.36;82.57
10127;BME280;13080;42.608;23.362;2023-02-28T10:59:33;153705.66;;;10.29;83.97
10127;BME280;13080;42.608;23.362;2023-02-28T11:02:00;153674.41;;;10.17;83.39
10127;BME280;13080;42.608;23.362;2023-02-28T11:04:35;153678.31;;;10.18;83.18
10127;BME280;13080;42.608;23.362;2023-02-28T11:07:16;153660.16;;;10.11;83.76
10127;BME280;13080;42.608;23.362;2023-02-28T11:09:45;153718.63;;;10.34;82.82
10127;BME280;13080;42.608;23.362;2023-02-28T11:12:21;153747.19;;;10.46;83.16
10127;BME280;13080;42.608;23.362;2023-02-28T11:14:50;153734.22;;;10.40;81.90
10127;BME280;13080;42.608;23.362;2023-02-28T11:17:21;153731.59;;;10.39;83.30
10127;BME280;13080;42.608;23.362;2023-02-28T11:19:51;153778.34;;;10.58;82.61
10127;BME280;13080;42.608;23.362;2023-02-28T11:22:22;153797.84;;;10.66;82.38
10127;BME280;13080;42.608;23.362;2023-02-28T11:24:55;153822.50;;;10.75;81.18
10127;BME280;13080;42.608;23.362;2023-02-28T11:27:43;153800.41;;;10.67;81.81
10127;BME280;13080;42.608;23.362;2023-02-28T11:30:31;153771.84;;;10.55;82.67
10127;BME280;13080;42.608;23.362;2023-02-28T11:32:58;153729.03;;;10.38;82.04
10127;BME280;13080;42.608;23.362;2023-02-28T11:35:29;153684.81;;;10.21;84.23
10127;BME280;13080;42.608;23.362;2023-02-28T11:37:58;153696.50;;;10.26;83.79
10127;BME280;13080;42.608;23.362;2023-02-28T11:40:31;153662.72;;;10.12;83.64
10127;BME280;13080;42.608;23.362;2023-02-28T11:43:07;153678.31;;;10.18;84.52
10127;BME280;13080;42.608;23.362;2023-02-28T11:45:55;153730.31;;;10.39;84.72
10127;BME280;13080;42.608;23.362;2023-02-28T11:48:30;153749.75;;;10.47;82.40
10127;BME280;13080;42.608;23.362;2023-02-28T11:51:08;153748.47;;;10.46;83.48
10127;BME280;13080;42.608;23.362;2023-02-28T11:53:53;153758.88;;;10.50;82.12
10127;BME280;13080;42.608;23.362;2023-02-28T11:56:30;153760.16;;;10.51;81.52
10127;BME280;13080;42.608;23.362;2023-02-28T11:59:11;153742.00;;;10.44;81.43
10127;BME280;13080;42.608;23.362;2023-02-28T12:02:04;153710.84;;;10.31;82.48
10127;BME280;13080;42.608;23.362;2023-02-28T12:04:38;153739.41;;;10.43;82.53
10127;BME280;13080;42.608;23.362;2023-02-28T12:07:15;153765.38;;;10.53;83.41
10127;BME280;13080;42.608;23.362;2023-02-28T12:09:53;153730.31;;;10.39;82.06
10127;BME280;13080;42.608;23.362;2023-02-28T12:12:35;153743.28;;;10.44;82.68
10127;BME280;13080;42.608;23.362;2023-02-28T12:15:24;153712.13;;;10.32;82.80
10127;BME280;13080;42.608;23.362;2023-02-28T12:18:14;153736.78;;;10.42;82.74
10127;BME280;13080;42.608;23.362;2023-02-28T12:20:50;153717.34;;;10.34;82.94
10127;BME280;13080;42.608;23.362;2023-02-28T12:23:39;153706.94;;;10.30;83.70
10127;BME280;13080;42.608;23.362;2023-02-28T12:26:16;153705.66;;;10.29;83.89
10127;BME280;13080;42.608;23.362;2023-02-28T12:28:51;153747.19;;;10.46;82.83
10127;BME280;13080;42.608;23.362;2023-02-28T12:31:22;153682.19;;;10.20;82.25
10127;BME280;13080;42.608;23.362;2023-02-28T12:33:52;153725.09;;;10.37;81.91
10127;BME280;13080;42.608;23.362;2023-02-28T12:36:20;153710.84;;;10.31;82.65
10127;BME280;13080;42.608;23.362;2023-02-28T12:38:52;153717.34;;;10.34;84.17
10127;BME280;13080;42.608;23.362;2023-02-28T12:41:26;153758.88;;;10.50;83.00
10127;BME280;13080;42.608;23.362;2023-02-28T12:43:58;153712.13;;;10.32;81.91
10127;BME280;13080;42.608;23.362;2023-02-28T12:46:32;153714.72;;;10.33;83.59
10127;BME280;13080;42.608;23.362;2023-02-28T12:49:04;153742.00;;;10.44;83.68
10127;BME280;13080;42.608;23.362;2023-02-28T12:51:34;153732.88;;;10.40;82.16
10127;BME280;13080;42.608;23.362;2023-02-28T12:54:10;153722.53;;;10.36;81.39
10127;BME280;13080;42.608;23.362;2023-02-28T12:56:45;153710.84;;;10.31;83.17
10127;BME280;13080;42.608;23.362;2023-02-28T12:59:21;153732.88;;;10.40;82.90
10127;BME280;13080;42.608;23.362;2023-02-28T13:05:00;153718.63;;;10.34;82.89